sensor_id;sensor_type;location;lat;lon;timestamp;P1;P2;P0
72854;PMS7003;60991;51.278;22.550;2023-07-13T00:00:02;10.25;10.25;7.25
72854;PMS7003;60991;51.278;22.550;2023-07-13T00:01:33;8.25;8.25;6.25
72854;PMS7003;60991;51.278;22.550;2023-07-13T00:03:04;12.00;11.25;8.75
72854;PMS7003;60991;51.278;22.550;2023-07-13T00:04:34;4.75;4.75;3.75
72854;PMS7003;60991;51.278;22.550;2023-07-13T00:06:04;9.00;8.75;6.00
72854;PMS7003;60991;51.278;22.550;2023-07-13T00:07:35;11.25;10.25;7.25
72854;PMS7003;60991;51.278;22.550;2023-07-13T00:09:06;9.00;7.00;6.00
72854;PMS7003;60991;51.278;22.550;2023-07-13T00:10:42;8.00;8.00;6.50
72854;PMS7003;60991;51.278;22.550;2023-07-13T00:12:26;9.00;8.50;6.00
72854;PMS7003;60991;51.278;22.550;2023-07-13T00:14:01;12.75;9.25;6.00
72854;PMS7003;60991;51.278;22.550;2023-07-13T00:15:31;8.00;7.50;6.25
72854;PMS7003;60991;51.278;22.550;2023-07-13T00:17:01;8.50;8.00;6.00
72854;PMS7003;60991;51.278;22.550;2023-07-13T00:18:32;9.50;9.50;7.00
72854;PMS7003;60991;51.278;22.550;2023-07-13T00:20:02;9.25;9.25;6.00
72854;PMS7003;60991;51.278;22.550;2023-07-13T00:21:33;8.50;8.50;6.00
72854;PMS7003;60991;51.278;22.550;2023-07-13T00:23:03;9.50;9.00;7.00
72854;PMS7003;60991;51.278;22.550;2023-07-13T00:24:33;7.50;7.25;6.00
72854;PMS7003;60991;51.278;22.550;2023-07-13T00:26:05;9.25;9.25;7.75
72854;PMS7003;60991;51.278;22.550;2023-07-13T00:27:36;7.75;7.75;6.00
72854;PMS7003;60991;51.278;22.550;2023-07-13T00:29:07;8.50;8.50;7.00
72854;PMS7003;60991;51.278;22.550;2023-07-13T00:30:37;7.00;7.00;4.25
72854;PMS7003;60991;51.278;22.550;2023-07-13T00:32:08;8.00;8.00;5.50
72854;PMS7003;60991;51.278;22.550;2023-07-13T00:33:38;11.75;8.00;5.25
72854;PMS7003;60991;51.278;22.550;2023-07-13T00:35:09;6.50;6.50;5.00
72854;PMS7003;60991;51.278;22.550;2023-07-13T00:36:39;12.25;8.50;6.00
72854;PMS7003;60991;51.278;22.550;2023-07-13T00:38:10;9.25;9.25;6.75
72854;PMS7003;60991;51.278;22.550;2023-07-13T00:39:40;10.75;9.00;5.00
72854;PMS7003;60991;51.278;22.550;2023-07-13T00:41:10;9.75;9.75;6.75
72854;PMS7003;60991;51.278;22.550;2023-07-13T00:42:40;11.75;10.00;7.25
72854;PMS7003;60991;51.278;22.550;2023-07-13T00:44:13;9.00;6.75;5.25
72854;PMS7003;60991;51.278;22.550;2023-07-13T00:47:14;10.00;9.00;5.00
72854;PMS7003;60991;51.278;22.550;2023-07-13T00:48:45;10.75;8.50;4.50
72854;PMS7003;60991;51.278;22.550;2023-07-13T00:50:17;9.00;7.00;5.00
72854;PMS7003;60991;51.278;22.550;2023-07-13T00:51:55;11.00;10.00;5.75
72854;PMS7003;60991;51.278;22.550;2023-07-13T00:53:31;7.25;7.25;4.75
72854;PMS7003;60991;51.278;22.550;2023-07-13T00:55:03;8.00;8.00;5.75
72854;PMS7003;60991;51.278;22.550;2023-07-13T00:56:34;7.75;7.50;5.00
72854;PMS7003;60991;51.278;22.550;2023-07-13T00:58:06;13.25;9.25;7.25
72854;PMS7003;60991;51.278;22.550;2023-07-13T00:59:36;10.75;9.75;7.00
72854;PMS7003;60991;51.278;22.550;2023-07-13T01:01:11;8.00;7.75;5.75
72854;PMS7003;60991;51.278;22.550;2023-07-13T01:02:42;8.00;8.00;6.00
72854;PMS7003;60991;51.278;22.550;2023-07-13T01:04:14;8.75;8.75;6.00
72854;PMS7003;60991;51.278;22.550;2023-07-13T01:05:46;7.25;7.25;5.00
72854;PMS7003;60991;51.278;22.550;2023-07-13T01:07:18;11.00;10.00;7.00
72854;PMS7003;60991;51.278;22.550;2023-07-13T01:08:49;8.75;7.75;6.25
72854;PMS7003;60991;51.278;22.550;2023-07-13T01:10:22;8.25;8.00;6.25
72854;PMS7003;60991;51.278;22.550;2023-07-13T01:11:53;8.50;7.75;6.00
72854;PMS7003;60991;51.278;22.550;2023-07-13T01:13:24;9.00;9.00;5.75
72854;PMS7003;60991;51.278;22.550;2023-07-13T01:14:58;7.25;7.00;6.00
72854;PMS7003;60991;51.278;22.550;2023-07-13T01:16:30;9.50;9.50;7.00
72854;PMS7003;60991;51.278;22.550;2023-07-13T01:18:03;10.25;8.75;6.50
72854;PMS7003;60991;51.278;22.550;2023-07-13T01:21:09;8.50;8.00;6.25
72854;PMS7003;60991;51.278;22.550;2023-07-13T01:22:40;10.00;7.00;6.00
72854;PMS7003;60991;51.278;22.550;2023-07-13T01:24:10;8.25;8.25;6.00
72854;PMS7003;60991;51.278;22.550;2023-07-13T01:25:40;9.00;7.50;5.50
72854;PMS7003;60991;51.278;22.550;2023-07-13T01:27:14;10.25;9.25;7.00
72854;PMS7003;60991;51.278;22.550;2023-07-13T01:28:46;9.00;8.00;6.00
72854;PMS7003;60991;51.278;22.550;2023-07-13T01:30:16;11.25;9.25;6.75
72854;PMS7003;60991;51.278;22.550;2023-07-13T01:31:47;8.50;7.00;5.25
72854;PMS7003;60991;51.278;22.550;2023-07-13T01:33:17;9.25;7.50;6.25
72854;PMS7003;60991;51.278;22.550;2023-07-13T01:34:47;10.75;9.00;7.00
72854;PMS7003;60991;51.278;22.550;2023-07-13T01:36:18;12.00;10.25;7.00
72854;PMS7003;60991;51.278;22.550;2023-07-13T01:37:48;11.25;8.75;6.50
72854;PMS7003;60991;51.278;22.550;2023-07-13T01:39:18;10.50;10.00;7.25
72854;PMS7003;60991;51.278;22.550;2023-07-13T01:40:52;11.75;11.50;8.00
72854;PMS7003;60991;51.278;22.550;2023-07-13T01:42:22;9.00;6.25;5.25
72854;PMS7003;60991;51.278;22.550;2023-07-13T01:43:52;10.00;10.00;7.00
72854;PMS7003;60991;51.278;22.550;2023-07-13T01:45:22;12.75;10.75;8.00
72854;PMS7003;60991;51.278;22.550;2023-07-13T01:46:53;9.50;9.50;7.00
72854;PMS7003;60991;51.278;22.550;2023-07-13T01:48:23;9.00;9.00;5.75
72854;PMS7003;60991;51.278;22.550;2023-07-13T01:49:53;9.25;8.50;6.00
72854;PMS7003;60991;51.278;22.550;2023-07-13T01:51:23;11.50;11.50;7.00
72854;PMS7003;60991;51.278;22.550;2023-07-13T01:52:53;10.00;10.00;7.75
72854;PMS7003;60991;51.278;22.550;2023-07-13T01:54:24;8.00;8.00;7.00
72854;PMS7003;60991;51.278;22.550;2023-07-13T01:55:54;9.75;9.75;7.25
72854;PMS7003;60991;51.278;22.550;2023-07-13T01:57:24;10.00;9.50;7.00
72854;PMS7003;60991;51.278;22.550;2023-07-13T01:58:54;7.50;7.50;6.25
72854;PMS7003;60991;51.278;22.550;2023-07-13T02:00:25;9.25;7.25;5.50
72854;PMS7003;60991;51.278;22.550;2023-07-13T02:01:55;8.25;7.50;5.50
72854;PMS7003;60991;51.278;22.550;2023-07-13T02:03:25;8.00;8.00;6.75
72854;PMS7003;60991;51.278;22.550;2023-07-13T02:04:55;7.75;6.75;6.00
72854;PMS7003;60991;51.278;22.550;2023-07-13T02:06:25;12.00;9.25;7.00
72854;PMS7003;60991;51.278;22.550;2023-07-13T02:07:56;10.75;10.25;7.50
72854;PMS7003;60991;51.278;22.550;2023-07-13T02:09:26;11.50;11.50;8.00
72854;PMS7003;60991;51.278;22.550;2023-07-13T02:10:56;11.75;9.00;6.00
72854;PMS7003;60991;51.278;22.550;2023-07-13T02:12:26;8.00;8.00;6.00
72854;PMS7003;60991;51.278;22.550;2023-07-13T02:13:56;9.75;9.50;8.00
72854;PMS7003;60991;51.278;22.550;2023-07-13T02:15:27;10.50;10.00;7.00
72854;PMS7003;60991;51.278;22.550;2023-07-13T02:16:57;7.75;7.75;6.00
72854;PMS7003;60991;51.278;22.550;2023-07-13T02:18:28;11.75;11.00;8.00
72854;PMS7003;60991;51.278;22.550;2023-07-13T02:19:58;9.75;8.50;6.75
72854;PMS7003;60991;51.278;22.550;2023-07-13T02:21:28;8.75;8.75;6.00
72854;PMS7003;60991;51.278;22.550;2023-07-13T02:22:59;10.50;10.50;7.50
72854;PMS7003;60991;51.278;22.550;2023-07-13T02:24:29;8.75;8.75;7.25
72854;PMS7003;60991;51.278;22.550;2023-07-13T02:25:59;11.75;9.50;7.00
72854;PMS7003;60991;51.278;22.550;2023-07-13T02:27:32;10.50;9.00;6.00
72854;PMS7003;60991;51.278;22.550;2023-07-13T02:29:02;10.75;10.75;7.50
72854;PMS7003;60991;51.278;22.550;2023-07-13T02:30:33;12.00;12.00;8.25
72854;PMS7003;60991;51.278;22.550;2023-07-13T02:32:05;11.25;10.25;6.75
72854;PMS7003;60991;51.278;22.550;2023-07-13T02:33:35;5.50;5.50;3.25
72854;PMS7003;60991;51.278;22.550;2023-07-13T02:35:05;12.75;9.75;7.75
72854;PMS7003;60991;51.278;22.550;2023-07-13T02:36:36;12.25;11.50;8.25
72854;PMS7003;60991;51.278;22.550;2023-07-13T02:38:06;9.00;9.00;7.50
72854;PMS7003;60991;51.278;22.550;2023-07-13T02:39:36;8.50;8.50;6.75
72854;PMS7003;60991;51.278;22.550;2023-07-13T02:41:07;13.50;11.50;7.75
72854;PMS7003;60991;51.278;22.550;2023-07-13T02:42:39;12.50;11.50;6.75
72854;PMS7003;60991;51.278;22.550;2023-07-13T02:44:11;14.00;10.00;7.75
72854;PMS7003;60991;51.278;22.550;2023-07-13T02:45:45;9.75;9.00;6.25
72854;PMS7003;60991;51.278;22.550;2023-07-13T02:47:16;10.25;10.25;7.75
72854;PMS7003;60991;51.278;22.550;2023-07-13T02:48:46;11.25;10.75;8.00
72854;PMS7003;60991;51.278;22.550;2023-07-13T02:50:16;11.00;11.00;7.00
72854;PMS7003;60991;51.278;22.550;2023-07-13T02:51:47;12.50;10.50;7.75
72854;PMS7003;60991;51.278;22.550;2023-07-13T02:53:17;12.00;10.50;6.75
72854;PMS7003;60991;51.278;22.550;2023-07-13T02:54:47;9.75;9.00;7.00
72854;PMS7003;60991;51.278;22.550;2023-07-13T02:56:22;10.50;8.50;6.75
72854;PMS7003;60991;51.278;22.550;2023-07-13T02:57:53;10.75;10.25;7.75
72854;PMS7003;60991;51.278;22.550;2023-07-13T02:59:24;11.00;11.00;7.25
72854;PMS7003;60991;51.278;22.550;2023-07-13T03:00:55;13.00;12.75;9.00
72854;PMS7003;60991;51.278;22.550;2023-07-13T03:02:26;11.00;10.25;7.00
72854;PMS7003;60991;51.278;22.550;2023-07-13T03:03:56;15.00;11.50;8.75
72854;PMS7003;60991;51.278;22.550;2023-07-13T03:05:26;12.00;11.00;8.00
72854;PMS7003;60991;51.278;22.550;2023-07-13T03:06:56;10.75;10.75;7.00
72854;PMS7003;60991;51.278;22.550;2023-07-13T03:08:26;12.75;12.00;7.75
72854;PMS7003;60991;51.278;22.550;2023-07-13T03:09:57;15.25;12.00;9.00
72854;PMS7003;60991;51.278;22.550;2023-07-13T03:11:27;14.00;13.25;10.75
72854;PMS7003;60991;51.278;22.550;2023-07-13T03:12:58;10.75;9.50;7.25
72854;PMS7003;60991;51.278;22.550;2023-07-13T03:14:28;11.00;11.00;7.25
72854;PMS7003;60991;51.278;22.550;2023-07-13T03:15:58;11.75;11.75;8.25
72854;PMS7003;60991;51.278;22.550;2023-07-13T03:17:28;10.00;10.00;6.00
72854;PMS7003;60991;51.278;22.550;2023-07-13T03:18:59;13.25;11.50;8.75
72854;PMS7003;60991;51.278;22.550;2023-07-13T03:20:31;13.75;12.25;8.25
72854;PMS7003;60991;51.278;22.550;2023-07-13T03:22:03;13.50;12.00;8.50
72854;PMS7003;60991;51.278;22.550;2023-07-13T03:23:33;17.50;15.25;8.75
72854;PMS7003;60991;51.278;22.550;2023-07-13T03:25:04;14.25;13.50;10.00
72854;PMS7003;60991;51.278;22.550;2023-07-13T03:26:34;11.00;11.00;8.75
72854;PMS7003;60991;51.278;22.550;2023-07-13T03:28:05;14.75;12.50;8.25
72854;PMS7003;60991;51.278;22.550;2023-07-13T03:29:35;14.50;11.50;7.25
72854;PMS7003;60991;51.278;22.550;2023-07-13T03:31:12;12.75;12.75;9.00
72854;PMS7003;60991;51.278;22.550;2023-07-13T03:32:44;12.50;11.50;8.50
72854;PMS7003;60991;51.278;22.550;2023-07-13T03:34:14;13.00;11.00;8.25
72854;PMS7003;60991;51.278;22.550;2023-07-13T03:35:45;13.00;11.75;8.00
72854;PMS7003;60991;51.278;22.550;2023-07-13T03:37:15;18.25;17.50;10.00
72854;PMS7003;60991;51.278;22.550;2023-07-13T03:38:49;15.25;12.50;9.75
72854;PMS7003;60991;51.278;22.550;2023-07-13T03:40:21;14.25;12.00;9.75
72854;PMS7003;60991;51.278;22.550;2023-07-13T03:41:51;17.00;12.25;8.75
72854;PMS7003;60991;51.278;22.550;2023-07-13T03:43:21;16.25;12.25;9.25
72854;PMS7003;60991;51.278;22.550;2023-07-13T03:44:51;14.75;13.00;9.25
72854;PMS7003;60991;51.278;22.550;2023-07-13T03:46:21;19.00;15.00;9.50
72854;PMS7003;60991;51.278;22.550;2023-07-13T03:47:52;11.75;11.00;10.50
72854;PMS7003;60991;51.278;22.550;2023-07-13T03:49:22;16.75;16.25;9.25
72854;PMS7003;60991;51.278;22.550;2023-07-13T03:50:52;17.25;17.25;11.75
72854;PMS7003;60991;51.278;22.550;2023-07-13T03:52:22;14.50;13.00;10.00
72854;PMS7003;60991;51.278;22.550;2023-07-13T03:53:53;14.00;14.00;9.75
72854;PMS7003;60991;51.278;22.550;2023-07-13T03:55:23;17.50;15.25;9.25
72854;PMS7003;60991;51.278;22.550;2023-07-13T03:56:53;17.50;15.50;9.00
72854;PMS7003;60991;51.278;22.550;2023-07-13T03:58:37;19.25;16.00;10.25
72854;PMS7003;60991;51.278;22.550;2023-07-13T04:00:10;12.25;12.00;9.25
72854;PMS7003;60991;51.278;22.550;2023-07-13T04:01:41;19.25;17.25;11.00
72854;PMS7003;60991;51.278;22.550;2023-07-13T04:03:11;15.00;15.00;9.25
72854;PMS7003;60991;51.278;22.550;2023-07-13T04:04:41;16.25;14.50;9.50
72854;PMS7003;60991;51.278;22.550;2023-07-13T04:06:19;13.00;13.00;9.00
72854;PMS7003;60991;51.278;22.550;2023-07-13T04:07:51;21.00;18.00;12.00
72854;PMS7003;60991;51.278;22.550;2023-07-13T04:09:21;16.25;16.25;11.00
72854;PMS7003;60991;51.278;22.550;2023-07-13T04:10:51;21.50;19.25;11.25
72854;PMS7003;60991;51.278;22.550;2023-07-13T04:12:21;18.75;16.00;10.00
72854;PMS7003;60991;51.278;22.550;2023-07-13T04:13:52;21.00;15.25;11.00
72854;PMS7003;60991;51.278;22.550;2023-07-13T04:15:22;16.25;14.50;10.00
72854;PMS7003;60991;51.278;22.550;2023-07-13T04:16:52;20.25;16.50;10.25
72854;PMS7003;60991;51.278;22.550;2023-07-13T04:18:23;20.75;17.25;10.75
72854;PMS7003;60991;51.278;22.550;2023-07-13T04:19:53;22.75;20.75;12.00
72854;PMS7003;60991;51.278;22.550;2023-07-13T04:21:23;17.75;15.00;12.00
72854;PMS7003;60991;51.278;22.550;2023-07-13T04:22:54;21.50;16.75;11.75
72854;PMS7003;60991;51.278;22.550;2023-07-13T04:24:24;16.75;15.50;11.00
72854;PMS7003;60991;51.278;22.550;2023-07-13T04:25:54;17.50;16.75;10.00
72854;PMS7003;60991;51.278;22.550;2023-07-13T04:27:24;20.25;17.50;12.00
72854;PMS7003;60991;51.278;22.550;2023-07-13T04:28:55;17.75;16.75;13.00
72854;PMS7003;60991;51.278;22.550;2023-07-13T04:30:26;24.50;24.50;16.75
72854;PMS7003;60991;51.278;22.550;2023-07-13T04:31:56;22.00;18.50;11.50
72854;PMS7003;60991;51.278;22.550;2023-07-13T04:33:26;23.00;21.75;14.00
72854;PMS7003;60991;51.278;22.550;2023-07-13T04:34:57;23.25;21.75;14.50
72854;PMS7003;60991;51.278;22.550;2023-07-13T04:36:27;26.50;25.00;14.00
72854;PMS7003;60991;51.278;22.550;2023-07-13T04:37:57;21.00;20.50;14.25
72854;PMS7003;60991;51.278;22.550;2023-07-13T04:39:27;22.00;20.75;13.00
72854;PMS7003;60991;51.278;22.550;2023-07-13T04:40:59;23.25;21.50;13.50
72854;PMS7003;60991;51.278;22.550;2023-07-13T04:42:30;15.00;14.50;9.75
72854;PMS7003;60991;51.278;22.550;2023-07-13T04:44:01;26.00;25.75;15.00
72854;PMS7003;60991;51.278;22.550;2023-07-13T04:45:31;19.00;17.00;11.50
72854;PMS7003;60991;51.278;22.550;2023-07-13T04:47:01;29.00;22.25;14.00
72854;PMS7003;60991;51.278;22.550;2023-07-13T04:48:31;22.00;20.75;14.75
72854;PMS7003;60991;51.278;22.550;2023-07-13T04:50:02;23.25;21.25;14.50
72854;PMS7003;60991;51.278;22.550;2023-07-13T04:51:32;18.00;17.25;12.00
72854;PMS7003;60991;51.278;22.550;2023-07-13T04:53:03;22.75;21.25;12.50
72854;PMS7003;60991;51.278;22.550;2023-07-13T04:54:34;23.50;20.50;13.50
72854;PMS7003;60991;51.278;22.550;2023-07-13T04:56:04;20.75;19.50;12.75
72854;PMS7003;60991;51.278;22.550;2023-07-13T04:57:35;24.25;21.75;13.25
72854;PMS7003;60991;51.278;22.550;2023-07-13T04:59:05;29.50;24.25;16.25
72854;PMS7003;60991;51.278;22.550;2023-07-13T05:00:35;17.25;17.25;11.25
72854;PMS7003;60991;51.278;22.550;2023-07-13T05:02:05;25.50;22.50;15.25
72854;PMS7003;60991;51.278;22.550;2023-07-13T05:03:36;6.25;6.00;0.00
72854;PMS7003;60991;51.278;22.550;2023-07-13T05:05:06;19.25;18.75;12.00
72854;PMS7003;60991;51.278;22.550;2023-07-13T05:06:37;19.25;19.25;10.75
72854;PMS7003;60991;51.278;22.550;2023-07-13T05:08:07;16.50;14.50;12.00
72854;PMS7003;60991;51.278;22.550;2023-07-13T05:09:37;24.75;23.25;13.00
72854;PMS7003;60991;51.278;22.550;2023-07-13T05:11:07;22.00;21.25;13.00
72854;PMS7003;60991;51.278;22.550;2023-07-13T05:12:38;22.25;21.00;13.75
72854;PMS7003;60991;51.278;22.550;2023-07-13T05:14:08;23.00;21.25;13.00
72854;PMS7003;60991;51.278;22.550;2023-07-13T05:15:38;29.50;24.25;17.50
72854;PMS7003;60991;51.278;22.550;2023-07-13T05:17:08;27.75;24.75;14.25
72854;PMS7003;60991;51.278;22.550;2023-07-13T05:18:38;20.50;18.75;10.50
72854;PMS7003;60991;51.278;22.550;2023-07-13T05:20:09;17.00;15.00;10.75
72854;PMS7003;60991;51.278;22.550;2023-07-13T05:21:39;17.25;16.00;11.00
72854;PMS7003;60991;51.278;22.550;2023-07-13T05:23:09;17.75;15.75;10.75
72854;PMS7003;60991;51.278;22.550;2023-07-13T05:24:40;15.50;15.50;11.25
72854;PMS7003;60991;51.278;22.550;2023-07-13T05:26:10;13.50;12.00;8.25
72854;PMS7003;60991;51.278;22.550;2023-07-13T05:27:41;16.50;15.25;10.75
72854;PMS7003;60991;51.278;22.550;2023-07-13T05:29:11;19.50;16.00;11.25
72854;PMS7003;60991;51.278;22.550;2023-07-13T05:30:45;18.00;17.00;10.75
72854;PMS7003;60991;51.278;22.550;2023-07-13T05:32:16;13.50;13.50;10.50
72854;PMS7003;60991;51.278;22.550;2023-07-13T05:33:47;20.25;18.00;11.75
72854;PMS7003;60991;51.278;22.550;2023-07-13T05:35:17;15.50;15.25;9.75
72854;PMS7003;60991;51.278;22.550;2023-07-13T05:36:48;15.00;13.75;11.00
72854;PMS7003;60991;51.278;22.550;2023-07-13T05:38:18;24.25;22.25;13.75
72854;PMS7003;60991;51.278;22.550;2023-07-13T05:39:48;18.00;17.00;11.75
72854;PMS7003;60991;51.278;22.550;2023-07-13T05:41:19;19.50;17.75;11.00
72854;PMS7003;60991;51.278;22.550;2023-07-13T05:42:49;18.25;18.25;11.75
72854;PMS7003;60991;51.278;22.550;2023-07-13T05:44:19;18.25;17.50;10.25
72854;PMS7003;60991;51.278;22.550;2023-07-13T05:45:51;13.50;13.50;9.00
72854;PMS7003;60991;51.278;22.550;2023-07-13T05:47:22;16.25;14.75;12.00
72854;PMS7003;60991;51.278;22.550;2023-07-13T05:48:52;13.75;13.25;9.50
72854;PMS7003;60991;51.278;22.550;2023-07-13T05:50:22;17.25;17.25;12.00
72854;PMS7003;60991;51.278;22.550;2023-07-13T05:51:53;23.00;21.75;13.75
72854;PMS7003;60991;51.278;22.550;2023-07-13T05:53:23;18.00;18.00;11.50
72854;PMS7003;60991;51.278;22.550;2023-07-13T05:54:53;17.50;16.50;11.75
72854;PMS7003;60991;51.278;22.550;2023-07-13T05:56:23;21.75;17.75;12.75
72854;PMS7003;60991;51.278;22.550;2023-07-13T05:57:54;17.75;16.75;11.50
72854;PMS7003;60991;51.278;22.550;2023-07-13T05:59:24;16.25;14.75;10.00
72854;PMS7003;60991;51.278;22.550;2023-07-13T06:02:53;19.00;17.25;12.25
72854;PMS7003;60991;51.278;22.550;2023-07-13T06:04:25;20.00;18.50;13.25
72854;PMS7003;60991;51.278;22.550;2023-07-13T06:05:55;16.75;16.75;11.25
72854;PMS7003;60991;51.278;22.550;2023-07-13T06:07:26;14.00;12.25;11.00
72854;PMS7003;60991;51.278;22.550;2023-07-13T06:08:56;17.25;16.50;12.00
72854;PMS7003;60991;51.278;22.550;2023-07-13T06:10:26;18.25;17.25;11.25
72854;PMS7003;60991;51.278;22.550;2023-07-13T06:11:56;19.75;19.75;13.50
72854;PMS7003;60991;51.278;22.550;2023-07-13T06:13:27;18.50;18.50;13.25
72854;PMS7003;60991;51.278;22.550;2023-07-13T06:14:57;21.00;20.00;13.50
72854;PMS7003;60991;51.278;22.550;2023-07-13T06:16:27;19.25;19.25;14.00
72854;PMS7003;60991;51.278;22.550;2023-07-13T06:17:57;14.75;13.00;10.00
72854;PMS7003;60991;51.278;22.550;2023-07-13T06:19:28;17.00;16.75;12.00
72854;PMS7003;60991;51.278;22.550;2023-07-13T06:20:59;20.25;17.00;12.25
72854;PMS7003;60991;51.278;22.550;2023-07-13T06:22:30;20.00;19.25;12.50
72854;PMS7003;60991;51.278;22.550;2023-07-13T06:24:00;15.75;15.75;11.50
72854;PMS7003;60991;51.278;22.550;2023-07-13T06:25:30;16.50;16.50;11.00
72854;PMS7003;60991;51.278;22.550;2023-07-13T06:27:01;20.50;16.50;13.25
72854;PMS7003;60991;51.278;22.550;2023-07-13T06:28:31;16.75;16.75;11.00
72854;PMS7003;60991;51.278;22.550;2023-07-13T06:30:03;16.50;16.50;12.00
72854;PMS7003;60991;51.278;22.550;2023-07-13T06:31:33;16.25;16.00;12.00
72854;PMS7003;60991;51.278;22.550;2023-07-13T06:33:04;12.75;12.75;8.75
72854;PMS7003;60991;51.278;22.550;2023-07-13T06:34:34;19.00;19.00;12.00
72854;PMS7003;60991;51.278;22.550;2023-07-13T06:36:05;22.00;16.00;11.50
72854;PMS7003;60991;51.278;22.550;2023-07-13T06:37:36;16.75;16.75;12.25
72854;PMS7003;60991;51.278;22.550;2023-07-13T06:39:07;16.50;16.50;12.00
72854;PMS7003;60991;51.278;22.550;2023-07-13T06:40:37;16.75;15.50;10.00
72854;PMS7003;60991;51.278;22.550;2023-07-13T06:42:07;15.00;15.00;11.00
72854;PMS7003;60991;51.278;22.550;2023-07-13T06:43:37;15.75;15.75;11.75
72854;PMS7003;60991;51.278;22.550;2023-07-13T06:45:08;17.50;16.00;11.75
72854;PMS7003;60991;51.278;22.550;2023-07-13T06:46:38;14.75;13.75;11.00
72854;PMS7003;60991;51.278;22.550;2023-07-13T06:48:09;15.00;14.25;11.00
72854;PMS7003;60991;51.278;22.550;2023-07-13T06:49:39;16.50;15.50;11.25
72854;PMS7003;60991;51.278;22.550;2023-07-13T06:51:09;19.50;19.50;12.50
72854;PMS7003;60991;51.278;22.550;2023-07-13T06:52:39;16.25;16.25;11.50
72854;PMS7003;60991;51.278;22.550;2023-07-13T06:54:10;14.00;14.00;10.25
72854;PMS7003;60991;51.278;22.550;2023-07-13T06:55:40;18.25;18.25;12.25
72854;PMS7003;60991;51.278;22.550;2023-07-13T06:57:10;20.50;20.00;13.00
72854;PMS7003;60991;51.278;22.550;2023-07-13T06:58:40;20.00;17.25;11.50
72854;PMS7003;60991;51.278;22.550;2023-07-13T07:00:11;17.00;16.50;12.00
72854;PMS7003;60991;51.278;22.550;2023-07-13T07:01:41;21.75;18.75;12.50
72854;PMS7003;60991;51.278;22.550;2023-07-13T07:03:12;20.50;19.75;13.75
72854;PMS7003;60991;51.278;22.550;2023-07-13T07:04:42;17.25;16.25;11.75
72854;PMS7003;60991;51.278;22.550;2023-07-13T07:06:19;22.75;21.00;15.25
72854;PMS7003;60991;51.278;22.550;2023-07-13T07:07:52;21.25;18.75;13.00
72854;PMS7003;60991;51.278;22.550;2023-07-13T07:09:24;19.50;17.25;10.75
72854;PMS7003;60991;51.278;22.550;2023-07-13T07:10:54;19.25;18.25;12.25
72854;PMS7003;60991;51.278;22.550;2023-07-13T07:12:24;14.50;14.50;11.00
72854;PMS7003;60991;51.278;22.550;2023-07-13T07:13:55;20.00;18.00;12.75
72854;PMS7003;60991;51.278;22.550;2023-07-13T07:15:25;20.25;18.75;13.75
72854;PMS7003;60991;51.278;22.550;2023-07-13T07:16:56;17.50;15.00;11.00
72854;PMS7003;60991;51.278;22.550;2023-07-13T07:18:26;18.00;18.00;12.25
72854;PMS7003;60991;51.278;22.550;2023-07-13T07:19:56;17.00;17.00;12.00
72854;PMS7003;60991;51.278;22.550;2023-07-13T07:21:26;15.75;15.75;12.75
72854;PMS7003;60991;51.278;22.550;2023-07-13T07:22:58;13.00;12.75;10.00
72854;PMS7003;60991;51.278;22.550;2023-07-13T07:24:28;25.00;20.50;11.25
72854;PMS7003;60991;51.278;22.550;2023-07-13T07:25:58;18.50;18.00;13.00
72854;PMS7003;60991;51.278;22.550;2023-07-13T07:27:29;17.50;17.50;12.50
72854;PMS7003;60991;51.278;22.550;2023-07-13T07:28:59;20.75;18.25;14.00
72854;PMS7003;60991;51.278;22.550;2023-07-13T07:30:29;24.00;21.75;14.75
72854;PMS7003;60991;51.278;22.550;2023-07-13T07:31:59;21.00;19.00;13.75
72854;PMS7003;60991;51.278;22.550;2023-07-13T07:33:30;16.00;16.00;10.75
72854;PMS7003;60991;51.278;22.550;2023-07-13T07:35:00;14.00;13.25;11.25
72854;PMS7003;60991;51.278;22.550;2023-07-13T07:36:31;15.00;14.25;9.75
72854;PMS7003;60991;51.278;22.550;2023-07-13T07:38:02;20.75;17.25;11.25
72854;PMS7003;60991;51.278;22.550;2023-07-13T07:39:32;16.00;14.25;9.75
72854;PMS7003;60991;51.278;22.550;2023-07-13T07:41:06;15.00;15.00;12.25
72854;PMS7003;60991;51.278;22.550;2023-07-13T07:42:36;20.75;20.25;15.00
72854;PMS7003;60991;51.278;22.550;2023-07-13T07:44:06;20.75;20.00;13.50
72854;PMS7003;60991;51.278;22.550;2023-07-13T07:45:36;22.25;21.50;14.50
72854;PMS7003;60991;51.278;22.550;2023-07-13T07:47:08;10.75;10.25;8.75
72854;PMS7003;60991;51.278;22.550;2023-07-13T07:48:38;20.25;18.75;12.25
72854;PMS7003;60991;51.278;22.550;2023-07-13T07:50:09;26.25;25.50;16.75
72854;PMS7003;60991;51.278;22.550;2023-07-13T07:51:39;21.00;21.00;15.25
72854;PMS7003;60991;51.278;22.550;2023-07-13T07:53:10;27.25;21.00;13.00
72854;PMS7003;60991;51.278;22.550;2023-07-13T07:54:40;22.50;21.75;14.75
72854;PMS7003;60991;51.278;22.550;2023-07-13T07:56:10;20.50;19.00;14.00
72854;PMS7003;60991;51.278;22.550;2023-07-13T07:57:41;21.75;19.50;13.50
72854;PMS7003;60991;51.278;22.550;2023-07-13T07:59:11;24.50;22.75;13.75
72854;PMS7003;60991;51.278;22.550;2023-07-13T08:00:41;22.75;22.00;14.25
72854;PMS7003;60991;51.278;22.550;2023-07-13T08:02:11;20.25;20.25;13.75
72854;PMS7003;60991;51.278;22.550;2023-07-13T08:03:42;22.50;22.00;14.00
72854;PMS7003;60991;51.278;22.550;2023-07-13T08:05:12;20.25;19.00;13.25
72854;PMS7003;60991;51.278;22.550;2023-07-13T08:06:42;26.00;23.75;14.25
72854;PMS7003;60991;51.278;22.550;2023-07-13T08:08:12;20.75;18.25;12.25
72854;PMS7003;60991;51.278;22.550;2023-07-13T08:09:42;21.00;20.25;13.75
72854;PMS7003;60991;51.278;22.550;2023-07-13T08:11:13;22.50;19.75;13.50
72854;PMS7003;60991;51.278;22.550;2023-07-13T08:12:43;24.25;21.25;14.00
72854;PMS7003;60991;51.278;22.550;2023-07-13T08:14:13;22.25;20.25;14.00
72854;PMS7003;60991;51.278;22.550;2023-07-13T08:15:43;25.25;22.25;13.75
72854;PMS7003;60991;51.278;22.550;2023-07-13T08:17:14;23.25;21.00;14.75
72854;PMS7003;60991;51.278;22.550;2023-07-13T08:18:44;25.00;21.75;15.00
72854;PMS7003;60991;51.278;22.550;2023-07-13T08:20:14;22.75;22.75;16.75
72854;PMS7003;60991;51.278;22.550;2023-07-13T08:21:45;26.00;25.25;16.00
72854;PMS7003;60991;51.278;22.550;2023-07-13T08:23:15;22.25;21.25;15.50
72854;PMS7003;60991;51.278;22.550;2023-07-13T08:24:45;23.50;22.25;15.50
72854;PMS7003;60991;51.278;22.550;2023-07-13T08:26:16;24.00;23.00;15.25
72854;PMS7003;60991;51.278;22.550;2023-07-13T08:27:46;31.00;26.50;16.00
72854;PMS7003;60991;51.278;22.550;2023-07-13T08:29:16;25.50;25.00;18.25
72854;PMS7003;60991;51.278;22.550;2023-07-13T08:30:46;22.75;21.75;14.00
72854;PMS7003;60991;51.278;22.550;2023-07-13T08:32:17;23.25;21.75;13.00